createdAt,value
2018-04-13T00:00:42.251Z,12.18
2018-04-13T00:03:10.282Z,12.21
2018-04-13T00:05:38.324Z,12.22
2018-04-13T00:08:06.403Z,12.34
2018-04-13T00:10:34.430Z,12.25
2018-04-13T00:13:02.574Z,12.20
2018-04-13T00:15:30.608Z,12.31
2018-04-13T00:17:58.562Z,12.35
2018-04-13T00:20:26.684Z,12.18
2018-04-13T00:22:54.639Z,12.23
2018-04-13T00:25:22.575Z,12.22
2018-04-13T00:27:50.521Z,12.17
2018-04-13T00:30:18.490Z,12.19
2018-04-13T00:32:46.460Z,12.18
2018-04-13T00:35:15.114Z,12.22
2018-04-13T00:37:43.109Z,12.21
2018-04-13T00:40:11.107Z,12.15
2018-04-13T00:42:39.075Z,12.18
2018-04-13T00:45:07.018Z,12.30
2018-04-13T00:47:35.914Z,12.31
2018-04-13T00:50:03.882Z,12.25
2018-04-13T00:52:31.857Z,12.16
2018-04-13T00:54:59.789Z,12.15
2018-04-13T00:57:27.789Z,12.08
2018-04-13T00:59:55.763Z,12.10
2018-04-13T01:02:23.730Z,12.07
2018-04-13T01:04:51.727Z,12.15
2018-04-13T01:07:19.669Z,12.17
2018-04-13T01:09:47.600Z,12.12
2018-04-13T01:12:15.571Z,12.19
2018-04-13T01:14:43.552Z,12.11
2018-04-13T01:17:11.514Z,12.01
2018-04-13T01:19:39.532Z,12.03
2018-04-13T01:22:07.502Z,12.02
2018-04-13T01:24:35.497Z,12.05
2018-04-13T01:27:03.443Z,12.05
2018-04-13T01:29:31.475Z,12.00
2018-04-13T01:31:59.409Z,11.99
2018-04-13T01:34:27.352Z,11.94
2018-04-13T01:36:55.313Z,11.91
2018-04-13T01:39:23.259Z,11.96
2018-04-13T01:41:51.261Z,11.77
2018-04-13T01:44:19.182Z,11.93
2018-04-13T01:46:47.152Z,12.00
2018-04-13T01:49:15.088Z,11.94
2018-04-13T01:51:43.079Z,11.87
2018-04-13T01:54:11.071Z,11.85
2018-04-13T01:56:39.058Z,11.88
2018-04-13T01:59:07.009Z,11.87
2018-04-13T02:01:34.979Z,11.84
2018-04-13T02:04:02.964Z,11.84
2018-04-13T02:06:30.916Z,11.75
2018-04-13T02:08:58.886Z,11.86
2018-04-13T02:11:26.832Z,11.93
2018-04-13T02:13:54.799Z,11.94
2018-04-13T02:16:22.751Z,12.01
2018-04-13T02:18:50.728Z,11.92
2018-04-13T02:21:18.732Z,11.97
2018-04-13T02:23:46.739Z,11.91
2018-04-13T02:26:14.677Z,12.00
2018-04-13T02:28:42.635Z,12.13
2018-04-13T02:31:10.595Z,12.04
2018-04-13T02:33:38.561Z,12.03
2018-04-13T02:36:06.517Z,12.10
2018-04-13T02:38:35.366Z,12.13
2018-04-13T02:41:03.308Z,12.03
2018-04-13T02:43:31.275Z,12.12
2018-04-13T02:45:59.189Z,12.08
2018-04-13T02:48:27.128Z,12.17
2018-04-13T02:50:55.073Z,12.14
2018-04-13T02:53:23.044Z,12.11
2018-04-13T02:55:51.037Z,12.20
2018-04-13T02:58:18.970Z,12.25
2018-04-13T03:00:46.960Z,12.33
2018-04-13T03:03:14.931Z,12.23
2018-04-13T03:05:42.898Z,12.26
2018-04-13T03:08:10.868Z,12.29
2018-04-13T03:10:38.842Z,12.27
2018-04-13T03:13:06.799Z,12.26
2018-04-13T03:15:35.266Z,12.27
2018-04-13T03:18:03.200Z,12.32
2018-04-13T03:20:31.170Z,12.32
2018-04-13T03:22:59.114Z,12.29
2018-04-13T03:25:27.054Z,12.34
2018-04-13T03:27:54.983Z,12.38
2018-04-13T03:30:22.932Z,12.36
2018-04-13T03:32:50.862Z,12.33
2018-04-13T03:35:18.892Z,12.45
2018-04-13T03:37:46.829Z,12.41
2018-04-13T03:40:14.797Z,12.42
2018-04-13T03:42:42.816Z,12.52
2018-04-13T03:45:10.807Z,12.37
2018-04-13T03:47:38.776Z,12.47
2018-04-13T03:50:06.712Z,12.37
2018-04-13T03:52:34.692Z,12.41
2018-04-13T03:55:03.532Z,12.43
2018-04-13T03:57:31.500Z,12.49
2018-04-13T03:59:59.442Z,12.60
2018-04-13T04:02:27.452Z,12.46
2018-04-13T04:04:55.424Z,12.51
2018-04-13T04:07:23.367Z,12.45
2018-04-13T04:09:51.326Z,12.44
2018-04-13T04:12:19.288Z,12.36
2018-04-13T04:14:47.267Z,12.34
2018-04-13T04:17:15.232Z,12.58
2018-04-13T04:19:54.951Z,12.52
2018-04-13T04:22:34.741Z,12.44
2018-04-13T04:28:02.104Z,12.37
2018-04-13T04:30:30.105Z,12.32
2018-04-13T04:32:58.076Z,12.37
2018-04-13T04:35:26.031Z,12.32
2018-04-13T04:37:54.012Z,12.38
2018-04-13T04:40:21.950Z,12.33
2018-04-13T04:42:49.927Z,12.33
2018-04-13T04:45:17.854Z,12.40
2018-04-13T04:47:45.835Z,12.46
2018-04-13T04:50:13.807Z,12.40
2018-04-13T04:52:41.733Z,12.44
2018-04-13T04:55:09.705Z,12.43
2018-04-13T04:57:37.719Z,12.36
2018-04-13T05:00:05.648Z,12.31
2018-04-13T05:02:33.614Z,12.43
2018-04-13T05:05:01.583Z,12.35
2018-04-13T05:07:29.534Z,12.40
2018-04-13T05:09:57.473Z,12.62
2018-04-13T05:12:25.446Z,12.52
2018-04-13T05:14:53.396Z,12.59
2018-04-13T05:17:21.353Z,12.60
2018-04-13T05:19:49.300Z,12.55
2018-04-13T05:22:17.253Z,12.55
2018-04-13T05:24:45.204Z,12.60
2018-04-13T05:27:13.156Z,12.61
2018-04-13T05:29:41.090Z,12.57
2018-04-13T05:32:09.041Z,12.56
2018-04-13T05:34:37.080Z,12.47
2018-04-13T05:37:05.051Z,12.52
2018-04-13T05:39:32.980Z,12.51
2018-04-13T05:42:00.920Z,12.47
2018-04-13T05:44:28.872Z,12.37
2018-04-13T05:46:57.116Z,12.52
2018-04-13T05:49:25.155Z,12.40
2018-04-13T05:51:53.064Z,12.38
2018-04-13T05:54:21.049Z,12.42
2018-04-13T05:56:48.989Z,12.45
2018-04-13T05:59:17.450Z,12.53
2018-04-13T06:01:45.391Z,12.55
2018-04-13T06:04:13.405Z,12.64
2018-04-13T06:06:41.359Z,12.66
2018-04-13T06:09:09.321Z,12.92
2018-04-13T06:11:37.245Z,12.92
2018-04-13T06:14:05.208Z,12.90
2018-04-13T06:16:33.153Z,12.91
2018-04-13T06:19:01.179Z,12.94
2018-04-13T06:21:29.108Z,13.03
2018-04-13T06:23:57.047Z,13.14
2018-04-13T06:26:25.024Z,13.02
2018-04-13T06:28:52.985Z,13.07
2018-04-13T06:31:20.947Z,12.96
2018-04-13T06:33:48.893Z,12.88
2018-04-13T06:36:16.919Z,12.90
2018-04-13T06:38:44.857Z,12.89
2018-04-13T06:41:12.780Z,12.93
2018-04-13T06:43:40.757Z,13.09
2018-04-13T06:46:08.690Z,13.34
2018-04-13T06:48:36.643Z,13.37
2018-04-13T06:51:04.601Z,13.45
2018-04-13T06:53:32.594Z,13.21
2018-04-13T06:56:00.536Z,13.40
2018-04-13T06:58:28.499Z,13.37
2018-04-13T07:00:56.518Z,13.49
2018-04-13T07:03:24.440Z,13.48
2018-04-13T07:05:52.361Z,13.66
2018-04-13T07:08:20.390Z,13.74
2018-04-13T07:10:48.357Z,13.93
2018-04-13T07:13:16.317Z,14.07
2018-04-13T07:15:44.310Z,14.24
2018-04-13T07:18:12.311Z,14.27
2018-04-13T07:20:40.275Z,14.28
2018-04-13T07:23:08.349Z,14.32
2018-04-13T07:25:36.371Z,14.53
2018-04-13T07:28:04.347Z,14.69
2018-04-13T07:30:32.316Z,14.88
2018-04-13T07:33:06.086Z,14.73
2018-04-13T07:35:34.106Z,14.77
2018-04-13T07:38:02.119Z,14.54
2018-04-13T07:40:30.054Z,14.50
2018-04-13T07:42:58.044Z,14.59
2018-04-13T07:45:25.977Z,14.87
2018-04-13T07:47:54.014Z,15.10
2018-04-13T07:50:21.984Z,15.52
2018-04-13T07:52:49.950Z,15.45
2018-04-13T07:55:17.921Z,15.40
2018-04-13T07:57:45.966Z,15.65
2018-04-13T08:00:13.899Z,15.67
2018-04-13T08:02:41.875Z,15.55
2018-04-13T08:05:10.076Z,15.47
2018-04-13T08:07:37.752Z,15.68
2018-04-13T08:10:05.677Z,15.72
2018-04-13T08:12:33.606Z,15.55
2018-04-13T08:15:01.613Z,15.72
2018-04-13T08:17:29.609Z,15.65
2018-04-13T08:19:57.564Z,15.70
2018-04-13T08:22:25.493Z,15.51
2018-04-13T08:24:53.446Z,15.69
2018-04-13T08:27:22.705Z,15.63
2018-04-13T08:29:50.661Z,15.72
2018-04-13T08:32:18.644Z,15.89
2018-04-13T08:34:46.891Z,15.60
2018-04-13T08:37:15.858Z,15.58
2018-04-13T08:39:43.822Z,15.84
2018-04-13T08:42:11.788Z,16.05
2018-04-13T08:44:39.769Z,16.35
2018-04-13T08:47:07.719Z,16.55
2018-04-13T08:49:35.649Z,16.61
2018-04-13T08:52:03.612Z,16.59
2018-04-13T08:54:31.629Z,16.67
2018-04-13T08:56:59.527Z,16.70
2018-04-13T08:59:27.476Z,16.61
2018-04-13T09:01:55.449Z,16.46
2018-04-13T09:04:23.499Z,16.61
2018-04-13T09:06:51.457Z,16.48
2018-04-13T09:09:19.477Z,16.55
2018-04-13T09:11:47.427Z,16.58
2018-04-13T09:14:15.375Z,16.58
2018-04-13T09:16:43.393Z,16.51
2018-04-13T09:19:11.315Z,16.47
2018-04-13T09:21:39.245Z,16.41
2018-04-13T09:24:07.188Z,16.56
2018-04-13T09:26:35.160Z,16.54
2018-04-13T09:29:03.121Z,16.93
2018-04-13T09:31:31.041Z,16.94
2018-04-13T09:33:58.963Z,17.30
2018-04-13T09:36:26.889Z,17.58
2018-04-13T09:38:54.846Z,17.60
2018-04-13T09:41:22.770Z,17.94
2018-04-13T09:43:50.678Z,18.49
2018-04-13T09:46:18.600Z,18.77
2018-04-13T09:48:46.540Z,18.64
2018-04-13T09:51:14.463Z,18.78
2018-04-13T09:53:42.445Z,18.71
2018-04-13T09:56:10.429Z,18.81
2018-04-13T09:58:38.376Z,18.47
2018-04-13T10:01:06.316Z,19.00
2018-04-13T10:03:39.776Z,19.55
2018-04-13T10:06:07.857Z,20.27
2018-04-13T10:08:35.753Z,20.84
2018-04-13T10:11:03.697Z,21.49
2018-04-13T10:13:32.480Z,21.73
2018-04-13T10:16:00.492Z,21.03
2018-04-13T10:18:28.452Z,20.74
2018-04-13T10:20:56.423Z,20.59
2018-04-13T10:23:24.844Z,20.63
2018-04-13T10:25:52.790Z,20.81
2018-04-13T10:28:20.777Z,20.87
2018-04-13T10:30:48.805Z,20.99
2018-04-13T10:33:16.741Z,21.31
2018-04-13T10:35:44.726Z,21.91
2018-04-13T10:38:12.726Z,22.41
2018-04-13T10:40:40.752Z,23.10
2018-04-13T10:43:08.805Z,23.23
2018-04-13T10:45:36.817Z,23.77
2018-04-13T10:48:05.386Z,23.91
2018-04-13T10:50:33.338Z,23.98
2018-04-13T10:53:01.311Z,24.18
2018-04-13T10:55:29.339Z,24.18
2018-04-13T10:57:57.303Z,24.10
2018-04-13T11:00:25.289Z,24.14
2018-04-13T11:02:53.283Z,23.98
2018-04-13T11:05:21.253Z,24.49
2018-04-13T11:07:49.281Z,24.16
2018-04-13T11:10:17.352Z,24.32
2018-04-13T11:12:45.283Z,24.01
2018-04-13T11:15:13.211Z,24.23
2018-04-13T11:17:41.632Z,24.23
2018-04-13T11:20:09.551Z,24.63
2018-04-13T11:22:37.517Z,25.04
2018-04-13T11:25:05.458Z,24.40
2018-04-13T11:27:33.479Z,24.70
2018-04-13T11:30:01.529Z,24.38
2018-04-13T11:32:29.617Z,24.53
2018-04-13T11:34:57.667Z,24.25
2018-04-13T11:37:25.598Z,23.54
2018-04-13T11:39:53.529Z,22.92
2018-04-13T11:42:21.470Z,23.13
2018-04-13T11:44:49.404Z,22.87
2018-04-13T11:47:17.349Z,22.82
2018-04-13T11:49:45.319Z,22.65
2018-04-13T11:52:13.299Z,22.29
2018-04-13T11:54:41.704Z,22.03
2018-04-13T11:57:09.676Z,22.41
2018-04-13T11:59:37.609Z,21.96
2018-04-13T12:02:05.551Z,22.20
2018-04-13T12:04:33.486Z,22.09
2018-04-13T12:07:01.436Z,22.37
2018-04-13T12:09:29.415Z,22.20
2018-04-13T12:11:57.339Z,22.75
2018-04-13T12:14:25.316Z,22.70
2018-04-13T12:16:53.244Z,22.78
2018-04-13T12:19:23.638Z,23.08
2018-04-13T12:21:51.720Z,23.01
2018-04-13T12:24:19.651Z,22.90
2018-04-13T12:26:49.237Z,23.00
2018-04-13T12:29:17.248Z,22.56
2018-04-13T12:31:45.193Z,22.38
2018-04-13T12:34:13.152Z,22.35
2018-04-13T12:36:41.198Z,22.43
2018-04-13T12:39:09.148Z,22.32
2018-04-13T12:41:37.263Z,22.52
2018-04-13T12:44:05.271Z,22.63
2018-04-13T12:46:33.214Z,22.35
2018-04-13T12:49:01.213Z,22.01
2018-04-13T12:51:29.141Z,22.24
2018-04-13T12:53:57.159Z,22.27
2018-04-13T12:56:25.053Z,22.40
2018-04-13T12:58:53.330Z,22.47
2018-04-13T13:01:21.341Z,22.88
2018-04-13T13:03:49.301Z,22.85
2018-04-13T13:06:17.273Z,23.09
2018-04-13T13:08:45.332Z,22.69
2018-04-13T13:11:13.234Z,22.76
2018-04-13T13:13:41.320Z,22.76
2018-04-13T13:16:09.283Z,22.80
2018-04-13T13:18:37.357Z,23.10
2018-04-13T13:21:05.353Z,22.75
2018-04-13T13:23:33.578Z,22.70
2018-04-13T13:26:02.501Z,22.51
2018-04-13T13:28:30.445Z,22.32
2018-04-13T13:30:58.374Z,21.95
2018-04-13T13:33:27.609Z,22.11
2018-04-13T13:35:55.936Z,21.85
2018-04-13T13:38:23.876Z,21.59
2018-04-13T13:40:51.832Z,21.53
2018-04-13T13:43:19.761Z,21.14
2018-04-13T13:45:47.688Z,20.90
2018-04-13T13:48:15.620Z,20.78
2018-04-13T13:50:43.625Z,20.74
2018-04-13T13:53:11.582Z,20.73
2018-04-13T13:55:39.530Z,20.71
2018-04-13T13:58:07.535Z,20.53
2018-04-13T14:00:35.549Z,20.50
2018-04-13T14:03:03.508Z,20.28
2018-04-13T14:05:31.517Z,20.20
2018-04-13T14:07:59.485Z,20.34
2018-04-13T14:10:27.437Z,20.24
2018-04-13T14:12:55.388Z,20.18
2018-04-13T14:15:23.332Z,20.24
2018-04-13T14:17:51.291Z,20.22
2018-04-13T14:20:19.273Z,20.19
2018-04-13T14:22:47.313Z,20.00
2018-04-13T14:25:15.287Z,19.91
2018-04-13T14:27:43.208Z,19.97
2018-04-13T14:30:11.641Z,19.75
2018-04-13T14:32:39.604Z,19.77
2018-04-13T14:35:07.586Z,19.69
2018-04-13T14:37:35.608Z,19.80
2018-04-13T14:40:03.527Z,19.72
2018-04-13T14:42:31.484Z,19.83
2018-04-13T14:44:59.451Z,19.81
2018-04-13T14:47:27.393Z,19.60
2018-04-13T14:49:55.342Z,19.55
2018-04-13T14:52:23.314Z,19.44
2018-04-13T14:54:51.283Z,19.28
2018-04-13T14:57:19.228Z,19.42
2018-04-13T14:59:47.149Z,19.21
2018-04-13T15:02:15.101Z,19.07
2018-04-13T15:04:43.852Z,19.22
2018-04-13T15:07:11.792Z,19.18
2018-04-13T15:09:39.731Z,19.22
2018-04-13T15:12:07.769Z,19.13
2018-04-13T15:14:35.695Z,19.18
2018-04-13T15:17:03.700Z,18.96
2018-04-13T15:19:31.645Z,18.80
2018-04-13T15:21:59.735Z,18.77
2018-04-13T15:24:27.696Z,18.46
2018-04-13T15:26:56.088Z,18.41
2018-04-13T15:29:24.223Z,18.62
2018-04-13T15:31:52.233Z,18.40
2018-04-13T15:34:20.263Z,18.04
2018-04-13T15:36:48.238Z,18.24
2018-04-13T15:39:16.257Z,18.05
2018-04-13T15:41:44.294Z,17.88
2018-04-13T15:44:12.260Z,17.79
2018-04-13T15:46:40.234Z,17.77
2018-04-13T15:49:08.160Z,17.55
2018-04-13T15:51:36.207Z,17.43
2018-04-13T15:54:04.141Z,17.40
2018-04-13T15:56:32.059Z,17.23
2018-04-13T15:58:59.982Z,17.18
2018-04-13T16:01:27.951Z,17.19
2018-04-13T16:03:55.873Z,16.98
2018-04-13T16:06:23.833Z,17.14
2018-04-13T16:08:51.791Z,16.92
2018-04-13T16:11:19.745Z,16.89
2018-04-13T16:13:47.681Z,16.63
2018-04-13T16:16:15.638Z,16.60
2018-04-13T16:18:43.623Z,16.42
2018-04-13T16:21:11.942Z,16.40
2018-04-13T16:23:40.305Z,16.41
2018-04-13T16:26:08.273Z,16.40
2018-04-13T16:28:36.221Z,16.44
2018-04-13T16:31:04.185Z,16.45
2018-04-13T16:33:32.183Z,16.33
2018-04-13T16:36:00.154Z,16.62
2018-04-13T16:38:28.120Z,16.57
2018-04-13T16:40:56.255Z,16.66
2018-04-13T16:43:24.230Z,16.50
2018-04-13T16:45:52.155Z,16.39
2018-04-13T16:48:20.077Z,16.37
2018-04-13T16:50:48.118Z,16.43
2018-04-13T16:53:16.037Z,16.24
2018-04-13T16:55:43.977Z,16.08
2018-04-13T16:58:11.900Z,15.90
2018-04-13T17:00:39.883Z,15.85
2018-04-13T17:03:07.830Z,15.96
2018-04-13T17:05:35.781Z,15.77
2018-04-13T17:08:03.726Z,15.65
2018-04-13T17:10:31.752Z,15.63
2018-04-13T17:13:00.358Z,15.61
2018-04-13T17:15:28.299Z,15.52
2018-04-13T17:17:56.350Z,15.43
2018-04-13T17:20:24.667Z,15.45
2018-04-13T17:22:52.604Z,15.42
2018-04-13T17:25:20.550Z,15.43
2018-04-13T17:27:48.461Z,15.37
2018-04-13T17:30:16.559Z,15.23
2018-04-13T17:32:44.528Z,15.17
2018-04-13T17:35:12.452Z,15.12
2018-04-13T17:37:40.865Z,15.06
2018-04-13T17:40:08.789Z,15.16
2018-04-13T17:42:36.763Z,14.97
2018-04-13T17:45:04.704Z,14.80
2018-04-13T17:47:32.663Z,14.88
2018-04-13T17:50:00.635Z,14.77
2018-04-13T17:52:28.648Z,14.82
2018-04-13T17:54:56.613Z,14.77
2018-04-13T17:57:24.650Z,14.75
2018-04-13T17:59:52.664Z,14.55
2018-04-13T18:02:20.591Z,14.56
2018-04-13T18:04:48.571Z,14.54
2018-04-13T18:07:16.504Z,14.54
2018-04-13T18:09:44.418Z,14.38
2018-04-13T18:12:12.367Z,14.41
2018-04-13T18:14:40.328Z,14.38
2018-04-13T18:17:08.241Z,14.47
2018-04-13T18:19:36.176Z,14.44
2018-04-13T18:22:04.088Z,14.26
2018-04-13T18:24:32.031Z,14.28
2018-04-13T18:26:59.981Z,13.68
2018-04-13T18:29:27.920Z,13.26
2018-04-13T18:31:55.844Z,13.45
2018-04-13T18:34:23.795Z,13.40
2018-04-13T18:36:51.700Z,13.50
2018-04-13T18:39:19.619Z,13.52
2018-04-13T18:41:47.540Z,13.59
2018-04-13T18:44:15.483Z,13.62
2018-04-13T18:46:43.429Z,13.65
2018-04-13T18:49:11.341Z,13.63
2018-04-13T18:51:39.305Z,13.73
2018-04-13T18:54:07.353Z,13.85
2018-04-13T18:56:35.299Z,13.93
2018-04-13T18:59:03.239Z,14.04
2018-04-13T19:01:31.150Z,13.85
2018-04-13T19:03:59.087Z,13.82
2018-04-13T19:06:27.011Z,14.12
2018-04-13T19:08:54.935Z,14.19
2018-04-13T19:11:22.847Z,14.18
2018-04-13T19:13:50.806Z,14.14
2018-04-13T19:16:18.720Z,13.73
2018-04-13T19:18:46.646Z,13.00
2018-04-13T19:21:14.567Z,13.03
2018-04-13T19:23:42.492Z,13.02
2018-04-13T19:26:11.327Z,13.00
2018-04-13T19:28:39.273Z,12.58
2018-04-13T19:31:07.192Z,12.57
2018-04-13T19:33:35.808Z,12.32
2018-04-13T19:36:03.716Z,12.29
2018-04-13T19:38:31.615Z,12.19
2018-04-13T19:40:59.574Z,12.08
2018-04-13T19:43:27.494Z,12.00
2018-04-13T19:45:55.413Z,11.98
2018-04-13T19:48:23.340Z,11.98
2018-04-13T19:50:51.283Z,12.10
2018-04-13T19:53:20.162Z,12.31
2018-04-13T19:55:48.110Z,12.61
2018-04-13T19:58:16.120Z,12.53
2018-04-13T20:00:44.045Z,12.61
2018-04-13T20:03:11.976Z,12.53
2018-04-13T20:05:39.925Z,12.58
2018-04-13T20:08:07.984Z,12.48
2018-04-13T20:10:35.965Z,12.53
2018-04-13T20:13:03.955Z,12.60
2018-04-13T20:15:31.889Z,12.55
2018-04-13T20:17:59.871Z,12.51
2018-04-13T20:20:27.855Z,12.61
2018-04-13T20:22:55.820Z,12.57
2018-04-13T20:25:23.768Z,12.57
2018-04-13T20:27:51.683Z,12.62
2018-04-13T20:30:19.854Z,12.67
2018-04-13T20:32:47.768Z,12.63
2018-04-13T20:35:15.721Z,12.69
2018-04-13T20:37:43.638Z,12.85
2018-04-13T20:40:11.551Z,12.84
2018-04-13T20:42:39.494Z,12.84
2018-04-13T20:45:07.436Z,12.94
2018-04-13T20:47:35.393Z,12.92
2018-04-13T20:50:03.324Z,12.84
2018-04-13T20:52:31.307Z,12.95
2018-04-13T20:54:59.312Z,12.88
2018-04-13T20:57:27.288Z,12.87
2018-04-13T20:59:55.332Z,12.80
2018-04-13T21:02:23.341Z,12.80
2018-04-13T21:04:51.307Z,12.82
2018-04-13T21:07:19.225Z,12.74
2018-04-13T21:09:47.200Z,12.81
2018-04-13T21:12:15.157Z,12.86
2018-04-13T21:14:43.106Z,12.87
2018-04-13T21:17:11.085Z,12.79
2018-04-13T21:19:39.024Z,12.69
2018-04-13T21:22:06.973Z,12.57
2018-04-13T21:24:34.960Z,12.44
2018-04-13T21:27:02.920Z,12.36
2018-04-13T21:29:30.833Z,12.31
2018-04-13T21:31:58.834Z,12.29
2018-04-13T21:34:26.764Z,12.38
2018-04-13T21:36:54.686Z,12.61
2018-04-13T21:39:22.677Z,12.51
2018-04-13T21:41:50.811Z,12.28
2018-04-13T21:44:18.813Z,12.27
2018-04-13T21:46:46.762Z,12.31
2018-04-13T21:49:14.740Z,12.12
2018-04-13T21:51:42.685Z,11.96
2018-04-13T21:54:10.608Z,12.22
2018-04-13T21:56:38.556Z,12.10
2018-04-13T21:59:06.551Z,12.15
2018-04-13T22:01:34.488Z,12.07
2018-04-13T22:04:02.424Z,11.88
2018-04-13T22:06:30.357Z,11.86
2018-04-13T22:08:58.296Z,11.88
2018-04-13T22:11:26.231Z,11.67
2018-04-13T22:14:06.069Z,11.78
2018-04-13T22:16:33.992Z,11.62
2018-04-13T22:19:02.021Z,11.71
2018-04-13T22:21:29.946Z,11.64
2018-04-13T22:23:57.876Z,11.86
2018-04-13T22:26:26.687Z,11.71
2018-04-13T22:28:54.641Z,11.70
2018-04-13T22:31:22.563Z,11.69
2018-04-13T22:33:50.520Z,11.61
2018-04-13T22:36:18.443Z,11.64
2018-04-13T22:38:46.399Z,11.59
2018-04-13T22:41:14.328Z,11.57
2018-04-13T22:43:42.264Z,11.61
2018-04-13T22:46:10.213Z,11.66
2018-04-13T22:48:38.132Z,11.53
2018-04-13T22:51:06.097Z,11.59
2018-04-13T22:53:34.020Z,11.66
2018-04-13T22:56:02.068Z,11.62
2018-04-13T22:58:30.105Z,11.67
2018-04-13T23:00:58.924Z,11.66
2018-04-13T23:03:27.004Z,11.89
2018-04-13T23:05:54.947Z,11.70
2018-04-13T23:08:22.916Z,11.69
2018-04-13T23:10:50.903Z,11.69
2018-04-13T23:13:18.883Z,11.60
2018-04-13T23:15:46.818Z,11.55
2018-04-13T23:18:14.776Z,11.59
2018-04-13T23:20:42.720Z,11.58
2018-04-13T23:23:10.668Z,11.76
2018-04-13T23:25:38.600Z,11.78
2018-04-13T23:28:06.620Z,11.76
2018-04-13T23:30:34.527Z,11.70
2018-04-13T23:33:02.439Z,11.64
2018-04-13T23:35:30.352Z,11.71
2018-04-13T23:37:58.316Z,11.72
2018-04-13T23:40:26.935Z,11.53
2018-04-13T23:42:54.923Z,11.46
2018-04-13T23:45:22.870Z,11.42
2018-04-13T23:47:50.820Z,11.42
2018-04-13T23:50:19.963Z,11.43
2018-04-13T23:52:48.693Z,11.43
2018-04-13T23:55:16.674Z,11.62
2018-04-13T23:57:44.722Z,11.74
